createdAt,value
2023-02-23T00:01:49.797Z,60.30
2023-02-23T00:06:52.377Z,60.33
2023-02-23T00:11:56.755Z,60.02
2023-02-23T00:16:59.947Z,60.27
2023-02-23T00:22:01.709Z,60.62
2023-02-23T00:27:06.534Z,60.68
2023-02-23T00:32:08.266Z,60.81
2023-02-23T00:37:10.269Z,60.85
2023-02-23T00:42:13.722Z,61.13
2023-02-23T00:47:15.579Z,61.14
2023-02-23T00:52:17.131Z,61.32
2023-02-23T00:57:18.597Z,61.64
2023-02-23T01:02:20.299Z,62.01
2023-02-23T01:07:25.605Z,62.51
2023-02-23T01:12:27.096Z,62.62
2023-02-23T01:17:30.637Z,63.20
2023-02-23T01:22:32.167Z,63.10
2023-02-23T01:27:35.824Z,63.63
2023-02-23T01:32:38.320Z,64.38
2023-02-23T01:37:42.498Z,63.97
2023-02-23T01:42:46.518Z,64.13
2023-02-23T01:47:49.381Z,65.36
2023-02-23T01:52:52.304Z,65.90
2023-02-23T01:58:05.580Z,65.74
2023-02-23T02:03:12.150Z,65.71
2023-02-23T02:08:14.556Z,66.75
2023-02-23T02:13:20.739Z,66.80
2023-02-23T02:18:52.280Z,67.73
2023-02-23T02:24:17.220Z,68.38
2023-02-23T02:29:49.748Z,68.32
2023-02-23T02:34:54.413Z,68.15
2023-02-23T02:40:16.804Z,67.70
2023-02-23T02:45:33.361Z,67.80
2023-02-23T02:50:42.614Z,68.35
2023-02-23T02:55:48.894Z,67.80
2023-02-23T03:01:10.273Z,67.44
2023-02-23T03:06:30.940Z,67.99
2023-02-23T03:12:06.345Z,69.51
2023-02-23T03:18:08.332Z,68.68
2023-02-23T03:23:53.900Z,68.77
2023-02-23T03:29:13.858Z,69.33
2023-02-23T03:34:41.000Z,70.08
2023-02-23T03:40:10.571Z,70.59
2023-02-23T03:45:35.461Z,70.78
2023-02-23T03:50:59.793Z,71.35
2023-02-23T03:56:21.442Z,70.39
2023-02-23T04:01:43.532Z,71.86
2023-02-23T04:07:06.749Z,72.31
2023-02-23T04:12:50.300Z,71.91
2023-02-23T04:17:53.966Z,70.94
2023-02-23T04:22:55.739Z,71.33
2023-02-23T04:27:57.474Z,71.77
2023-02-23T04:32:59.395Z,72.69
2023-02-23T04:38:01.046Z,71.05
2023-02-23T04:43:02.757Z,72.33
2023-02-23T04:48:04.748Z,72.20
2023-02-23T04:53:06.306Z,72.02
2023-02-23T04:58:13.767Z,72.26
2023-02-23T05:03:17.478Z,71.91
2023-02-23T05:08:19.050Z,71.24
2023-02-23T05:13:20.635Z,71.36
2023-02-23T05:18:22.140Z,71.57
2023-02-23T05:23:23.669Z,71.75
2023-02-23T05:28:25.212Z,71.92
2023-02-23T05:33:27.082Z,72.00
2023-02-23T05:38:28.614Z,71.71
2023-02-23T05:43:30.095Z,71.81
2023-02-23T05:48:31.584Z,71.58
2023-02-23T05:53:33.281Z,71.20
2023-02-23T05:58:35.015Z,71.48
2023-02-23T06:03:36.524Z,71.57
2023-02-23T06:08:38.356Z,71.56
2023-02-23T06:13:40.435Z,71.46
2023-02-23T06:18:42.023Z,71.34
2023-02-23T06:23:43.528Z,70.89
2023-02-23T06:28:45.022Z,70.53
2023-02-23T06:33:46.576Z,70.21
2023-02-23T06:38:48.517Z,70.11
2023-02-23T06:43:50.409Z,70.03
2023-02-23T06:48:55.823Z,69.67
2023-02-23T06:53:57.315Z,69.72
2023-02-23T06:58:58.781Z,69.96
2023-02-23T07:04:00.321Z,70.08
2023-02-23T07:09:01.887Z,69.21
2023-02-23T07:14:03.449Z,68.47
2023-02-23T07:19:05.560Z,68.33
2023-02-23T07:24:08.688Z,68.32
2023-02-23T07:29:12.413Z,67.78
2023-02-23T07:34:13.894Z,67.74
2023-02-23T07:39:15.640Z,67.89
2023-02-23T07:44:17.179Z,67.71
2023-02-23T07:49:18.774Z,67.18
2023-02-23T07:54:21.885Z,67.13
2023-02-23T07:59:23.407Z,67.81
2023-02-23T08:04:24.942Z,66.72
2023-02-23T08:09:26.458Z,65.99
2023-02-23T08:14:28.652Z,65.52
2023-02-23T08:19:30.573Z,65.42
2023-02-23T08:24:32.334Z,65.17
2023-02-23T08:29:34.999Z,65.51
2023-02-23T08:34:41.723Z,65.42
2023-02-23T08:39:44.202Z,65.22
2023-02-23T08:44:46.411Z,64.93
2023-02-23T08:49:48.583Z,65.03
2023-02-23T08:54:50.163Z,65.26
2023-02-23T08:59:51.769Z,65.49
2023-02-23T09:04:54.127Z,65.57
2023-02-23T09:09:57.100Z,65.16
2023-02-23T09:14:58.798Z,64.70
2023-02-23T09:20:00.291Z,63.99
2023-02-23T09:25:01.862Z,64.54
2023-02-23T09:30:04.813Z,64.06
2023-02-23T09:35:07.147Z,63.56
2023-02-23T09:40:14.686Z,63.90
2023-02-23T09:45:32.022Z,63.23
2023-02-23T09:50:35.369Z,63.44
2023-02-23T09:55:40.996Z,63.19
2023-02-23T10:00:46.973Z,63.18
2023-02-23T10:05:55.713Z,63.71
2023-02-23T10:11:17.331Z,63.21
2023-02-23T10:16:30.094Z,62.96
2023-02-23T10:21:38.102Z,63.17
2023-02-23T10:26:50.703Z,62.32
2023-02-23T10:31:58.352Z,62.40
2023-02-23T10:37:02.581Z,62.34
2023-02-23T10:42:06.394Z,62.57
2023-02-23T10:47:14.780Z,62.31
2023-02-23T10:52:46.800Z,62.21
2023-02-23T10:57:48.477Z,62.11
2023-02-23T11:02:50.242Z,61.92
2023-02-23T11:08:08.901Z,61.46
2023-02-23T11:13:27.332Z,61.61
2023-02-23T11:18:29.749Z,61.31
2023-02-23T11:23:37.052Z,60.92
2023-02-23T11:28:43.126Z,61.17
2023-02-23T11:33:47.162Z,60.89
2023-02-23T11:38:56.557Z,60.97
2023-02-23T11:43:59.529Z,60.44
2023-02-23T11:49:05.191Z,60.26
2023-02-23T11:54:17.087Z,60.54
2023-02-23T11:59:35.049Z,60.47
2023-02-23T12:04:40.646Z,60.21
2023-02-23T12:09:46.375Z,59.99
2023-02-23T12:15:04.211Z,59.60
2023-02-23T12:20:21.518Z,59.75
2023-02-23T12:25:56.144Z,59.87
2023-02-23T12:31:28.430Z,59.43
2023-02-23T12:36:39.677Z,59.47
2023-02-23T12:41:44.705Z,59.21
2023-02-23T12:46:51.498Z,58.88
2023-02-23T12:52:00.048Z,59.05
2023-02-23T12:57:39.656Z,58.64
2023-02-23T13:02:46.258Z,58.26
2023-02-23T13:08:13.639Z,58.75
2023-02-23T13:13:46.531Z,58.83
2023-02-23T13:19:19.597Z,58.64
2023-02-23T13:24:27.439Z,58.39
2023-02-23T13:29:36.160Z,58.84
2023-02-23T13:35:03.453Z,58.78
2023-02-23T13:40:20.239Z,59.07
2023-02-23T13:45:55.089Z,59.02
2023-02-23T13:50:56.583Z,58.92
2023-02-23T13:56:07.236Z,59.05
2023-02-23T14:01:15.694Z,59.15
2023-02-23T14:06:19.716Z,58.68
2023-02-23T14:11:40.600Z,58.63
2023-02-23T14:16:43.229Z,58.86
2023-02-23T14:21:52.619Z,58.64
2023-02-23T14:27:34.226Z,58.75
2023-02-23T14:32:44.405Z,58.79
2023-02-23T14:37:56.563Z,58.65
2023-02-23T14:43:00.853Z,58.94
2023-02-23T14:48:08.449Z,58.81
2023-02-23T14:53:29.859Z,59.00
2023-02-23T14:58:35.297Z,59.21
2023-02-23T15:03:37.157Z,59.22
2023-02-23T15:08:44.776Z,59.24
2023-02-23T15:13:52.224Z,59.25
2023-02-23T15:18:54.047Z,59.70
2023-02-23T15:24:14.109Z,59.79
2023-02-23T15:29:22.023Z,60.11
2023-02-23T15:34:27.092Z,60.44
2023-02-23T15:39:53.389Z,60.58
2023-02-23T15:44:58.955Z,61.04
2023-02-23T15:50:34.981Z,61.38
2023-02-23T15:55:38.271Z,61.41
2023-02-23T16:00:42.600Z,61.62
2023-02-23T16:05:55.508Z,61.69
2023-02-23T16:11:13.410Z,62.27
2023-02-23T16:16:19.583Z,62.78
2023-02-23T16:21:25.335Z,62.72
2023-02-23T16:26:33.726Z,63.35
2023-02-23T16:31:50.504Z,63.10
2023-02-23T16:37:00.021Z,63.08
2023-02-23T16:42:01.633Z,64.13
2023-02-23T16:47:03.079Z,64.76
2023-02-23T16:52:15.973Z,64.43
2023-02-23T16:57:29.685Z,64.09
2023-02-23T17:02:31.199Z,63.97
2023-02-23T17:07:32.772Z,64.02
2023-02-23T17:12:34.603Z,64.33
2023-02-23T17:17:36.072Z,64.99
2023-02-23T17:22:37.615Z,65.04
2023-02-23T17:27:39.319Z,65.06
2023-02-23T17:32:41.242Z,65.93
2023-02-23T17:37:44.754Z,66.38
2023-02-23T17:42:46.560Z,66.37
2023-02-23T17:47:48.457Z,66.29
2023-02-23T17:52:51.475Z,65.98
2023-02-23T17:57:53.016Z,66.47
2023-02-23T18:02:54.716Z,66.46
2023-02-23T18:07:56.328Z,67.09
2023-02-23T18:12:57.979Z,67.45
2023-02-23T18:18:01.380Z,67.40
2023-02-23T18:23:02.970Z,67.30
2023-02-23T18:28:06.506Z,67.09
2023-02-23T18:33:09.085Z,67.15
2023-02-23T18:38:13.979Z,67.14
2023-02-23T18:43:17.873Z,67.70
2023-02-23T18:48:20.543Z,68.17
2023-02-23T18:53:22.319Z,67.96
2023-02-23T18:58:24.348Z,68.26
2023-02-23T19:03:25.914Z,68.31
2023-02-23T19:08:30.890Z,68.34
2023-02-23T19:13:32.455Z,68.44
2023-02-23T19:18:35.787Z,68.91
2023-02-23T19:23:37.774Z,69.19
2023-02-23T19:28:39.704Z,69.27
2023-02-23T19:33:42.273Z,68.74
2023-02-23T19:38:44.572Z,68.73
2023-02-23T19:43:46.509Z,68.74
2023-02-23T19:48:53.892Z,68.89
2023-02-23T19:53:57.206Z,69.58
2023-02-23T19:59:01.050Z,69.47
2023-02-23T20:04:06.576Z,69.05
2023-02-23T20:09:09.563Z,69.15
2023-02-23T20:14:12.426Z,69.88
2023-02-23T20:19:14.074Z,69.76
2023-02-23T20:24:15.977Z,70.58
2023-02-23T20:29:19.276Z,70.68
2023-02-23T20:34:24.392Z,70.21
2023-02-23T20:39:27.152Z,70.50
2023-02-23T20:44:30.271Z,70.26
2023-02-23T20:49:31.847Z,70.59
2023-02-23T20:54:33.415Z,70.82
2023-02-23T20:59:38.885Z,71.26
2023-02-23T21:04:43.506Z,71.54
2023-02-23T21:09:45.579Z,71.95
2023-02-23T21:14:48.363Z,72.22
2023-02-23T21:19:49.978Z,71.80
2023-02-23T21:24:51.455Z,71.58
2023-02-23T21:29:55.437Z,71.64
2023-02-23T21:34:58.614Z,73.02
2023-02-23T21:40:00.134Z,72.36
2023-02-23T21:45:01.796Z,72.07
2023-02-23T21:50:03.822Z,72.84
2023-02-23T21:55:13.273Z,72.64
2023-02-23T22:00:21.779Z,72.50
2023-02-23T22:05:23.437Z,72.81
2023-02-23T22:10:24.953Z,73.37
2023-02-23T22:15:27.363Z,73.45
2023-02-23T22:20:28.912Z,73.32
2023-02-23T22:25:30.420Z,73.70
2023-02-23T22:30:31.944Z,73.45
2023-02-23T22:35:33.425Z,73.08
2023-02-23T22:40:35.924Z,73.40
2023-02-23T22:45:38.562Z,73.35
2023-02-23T22:50:42.254Z,72.94
2023-02-23T22:55:48.927Z,73.20
2023-02-23T23:01:02.527Z,73.20
2023-02-23T23:06:08.172Z,74.22
2023-02-23T23:11:25.993Z,73.68
2023-02-23T23:16:33.609Z,73.57
2023-02-23T23:21:35.811Z,73.62
2023-02-23T23:26:39.753Z,73.54
2023-02-23T23:31:45.488Z,73.94
2023-02-23T23:36:53.266Z,74.01
2023-02-23T23:41:55.126Z,73.76
2023-02-23T23:46:58.199Z,73.90
2023-02-23T23:52:00.183Z,74.32
2023-02-23T23:57:01.720Z,74.18
